Terminal Aerodrome Forecast
Issued by NWS Upton, NY

Home | Current Version | Previous Version | Text Only | Print | Product List | Glossary On
Versions: 1 2 3 4 5 6 7 8 9 10 11 12 13 14 15 16 17 18 19 20 21 22 23 24 25 26 27 28
000
FTUS41 KOKX 261928 AAA
TAFEWR
TAF AMD
KEWR 261928Z 2619/2724 VRB05KT P6SM BKN070
      TEMPO 2620/2622 13005KT P6SM BKN070
     FM262200 32005KT P6SM BKN070
     FM270300 32007KT P6SM SCT070
     FM271400 32012KT P6SM BKN060
     FM271900 32014G20KT P6SM BKN060 PROB30 2719/2724 -SHRA BKN050=

USA.gov is the U.S. government's official web portal to all federal, state and local government web resources and services.